KHCO

Hallock Municipal Airport

Hallock, Minnesota, USA
METAR KHCO 201855Z AUTO 34010KT 10SM BKN038 03/M07 A3035 RMK AO2
Observed Flight Rules
Oct-20 @ 18:55 UTC (25 minutes ago) Visual Flight Rules
Wind Visibility Clouds
340° at 10 knots 10 miles
  • Broken at 3,800' AGL
Temperatures Readings
Current 3°C / 37°F
Dewpoint -7°C / 19°F
Humidity 48%
Altimeter 30.35" Hg
Pressure 1028 hPa
Elevation 250
METAR KHCO 201855Z AUTO 34010KT 10SM BKN038 03/M07 A3035 RMK AO2
Observed Flight Rules
Oct-20 @ 18:55 UTC
(25 minutes ago)
VFR
Wind Visibility
340° at 10 knots 10 miles
Clouds
  • Broken at 3,800' AGL
Temperature Dewpoint
3°C / 37°F -7°C / 19°F
Humidity Altimeter Pressure
48% 30.35" Hg 1028 hPa